sensor_id;sensor_type;location;lat;lon;timestamp;P1;durP1;ratioP1;P2;durP2;ratioP2
26163;SDS011;13914;48.178;11.716;2023-05-21T00:02:25;9.98;;;6.95;;
26163;SDS011;13914;48.178;11.716;2023-05-21T00:04:54;11.23;;;7.32;;
26163;SDS011;13914;48.178;11.716;2023-05-21T00:07:20;13.70;;;7.03;;
26163;SDS011;13914;48.178;11.716;2023-05-21T00:09:45;13.77;;;7.35;;
26163;SDS011;13914;48.178;11.716;2023-05-21T00:12:11;10.65;;;6.93;;
26163;SDS011;13914;48.178;11.716;2023-05-21T00:14:37;8.07;;;6.47;;
26163;SDS011;13914;48.178;11.716;2023-05-21T00:17:03;12.75;;;6.57;;
26163;SDS011;13914;48.178;11.716;2023-05-21T00:19:29;10.20;;;6.88;;
26163;SDS011;13914;48.178;11.716;2023-05-21T00:21:56;11.98;;;6.68;;
26163;SDS011;13914;48.178;11.716;2023-05-21T00:24:26;11.10;;;6.93;;
26163;SDS011;13914;48.178;11.716;2023-05-21T00:26:53;11.70;;;7.32;;
26163;SDS011;13914;48.178;11.716;2023-05-21T00:29:18;13.02;;;6.57;;
26163;SDS011;13914;48.178;11.716;2023-05-21T00:31:44;12.27;;;6.75;;
26163;SDS011;13914;48.178;11.716;2023-05-21T00:34:11;10.52;;;6.53;;
26163;SDS011;13914;48.178;11.716;2023-05-21T00:36:38;12.43;;;6.85;;
26163;SDS011;13914;48.178;11.716;2023-05-21T00:43:56;8.68;;;5.88;;
26163;SDS011;13914;48.178;11.716;2023-05-21T00:46:24;11.23;;;6.63;;
26163;SDS011;13914;48.178;11.716;2023-05-21T00:48:52;10.98;;;6.57;;
26163;SDS011;13914;48.178;11.716;2023-05-21T00:51:18;10.23;;;7.10;;
26163;SDS011;13914;48.178;11.716;2023-05-21T00:53:48;12.55;;;6.35;;
26163;SDS011;13914;48.178;11.716;2023-05-21T00:56:16;11.95;;;7.18;;
26163;SDS011;13914;48.178;11.716;2023-05-21T00:58:45;8.45;;;6.28;;
26163;SDS011;13914;48.178;11.716;2023-05-21T01:01:12;11.20;;;6.78;;
26163;SDS011;13914;48.178;11.716;2023-05-21T01:03:38;9.05;;;5.90;;
26163;SDS011;13914;48.178;11.716;2023-05-21T01:06:05;12.25;;;6.20;;
26163;SDS011;13914;48.178;11.716;2023-05-21T01:08:32;13.73;;;6.47;;
26163;SDS011;13914;48.178;11.716;2023-05-21T01:11:00;9.73;;;6.30;;
26163;SDS011;13914;48.178;11.716;2023-05-21T01:13:27;9.77;;;6.32;;
26163;SDS011;13914;48.178;11.716;2023-05-21T01:15:54;8.40;;;6.05;;
26163;SDS011;13914;48.178;11.716;2023-05-21T01:18:22;11.18;;;6.55;;
26163;SDS011;13914;48.178;11.716;2023-05-21T01:20:49;10.10;;;6.47;;
26163;SDS011;13914;48.178;11.716;2023-05-21T01:23:18;10.70;;;6.75;;
26163;SDS011;13914;48.178;11.716;2023-05-21T01:25:45;7.72;;;5.95;;
26163;SDS011;13914;48.178;11.716;2023-05-21T01:30:38;10.88;;;6.47;;
26163;SDS011;13914;48.178;11.716;2023-05-21T01:33:18;11.68;;;6.15;;
26163;SDS011;13914;48.178;11.716;2023-05-21T01:36:02;9.70;;;6.38;;
26163;SDS011;13914;48.178;11.716;2023-05-21T01:38:36;12.52;;;6.82;;
26163;SDS011;13914;48.178;11.716;2023-05-21T01:41:10;9.15;;;6.03;;
26163;SDS011;13914;48.178;11.716;2023-05-21T01:43:37;7.97;;;5.63;;
26163;SDS011;13914;48.178;11.716;2023-05-21T01:46:06;8.25;;;5.90;;
26163;SDS011;13914;48.178;11.716;2023-05-21T01:48:35;12.48;;;6.80;;
26163;SDS011;13914;48.178;11.716;2023-05-21T01:51:03;8.70;;;5.85;;
26163;SDS011;13914;48.178;11.716;2023-05-21T01:53:30;8.85;;;5.80;;
26163;SDS011;13914;48.178;11.716;2023-05-21T01:55:56;12.25;;;6.32;;
26163;SDS011;13914;48.178;11.716;2023-05-21T02:00:49;10.98;;;5.70;;
26163;SDS011;13914;48.178;11.716;2023-05-21T02:05:45;10.20;;;5.93;;
26163;SDS011;13914;48.178;11.716;2023-05-21T02:08:11;10.48;;;6.53;;
26163;SDS011;13914;48.178;11.716;2023-05-21T02:10:39;11.82;;;6.65;;
26163;SDS011;13914;48.178;11.716;2023-05-21T02:13:05;9.57;;;6.35;;
26163;SDS011;13914;48.178;11.716;2023-05-21T02:15:30;14.25;;;6.35;;
26163;SDS011;13914;48.178;11.716;2023-05-21T02:17:58;9.40;;;6.50;;
26163;SDS011;13914;48.178;11.716;2023-05-21T02:20:24;10.63;;;6.82;;
26163;SDS011;13914;48.178;11.716;2023-05-21T02:22:50;8.75;;;6.30;;
26163;SDS011;13914;48.178;11.716;2023-05-21T02:25:16;11.80;;;6.90;;
26163;SDS011;13914;48.178;11.716;2023-05-21T02:27:45;10.95;;;6.35;;
26163;SDS011;13914;48.178;11.716;2023-05-21T02:30:12;10.20;;;6.53;;
26163;SDS011;13914;48.178;11.716;2023-05-21T02:32:40;9.75;;;6.32;;
26163;SDS011;13914;48.178;11.716;2023-05-21T02:35:07;12.02;;;6.57;;
26163;SDS011;13914;48.178;11.716;2023-05-21T02:37:35;10.52;;;6.47;;
26163;SDS011;13914;48.178;11.716;2023-05-21T02:40:02;10.32;;;6.80;;
26163;SDS011;13914;48.178;11.716;2023-05-21T02:42:32;10.05;;;6.72;;
26163;SDS011;13914;48.178;11.716;2023-05-21T02:45:00;10.70;;;7.03;;
26163;SDS011;13914;48.178;11.716;2023-05-21T02:47:26;12.48;;;6.32;;
26163;SDS011;13914;48.178;11.716;2023-05-21T02:49:52;15.40;;;7.65;;
26163;SDS011;13914;48.178;11.716;2023-05-21T02:52:18;10.32;;;6.82;;
26163;SDS011;13914;48.178;11.716;2023-05-21T02:54:48;11.15;;;6.63;;
26163;SDS011;13914;48.178;11.716;2023-05-21T02:57:13;10.30;;;6.38;;
26163;SDS011;13914;48.178;11.716;2023-05-21T02:59:39;12.13;;;6.55;;
26163;SDS011;13914;48.178;11.716;2023-05-21T03:02:05;8.65;;;5.95;;
26163;SDS011;13914;48.178;11.716;2023-05-21T03:04:31;9.63;;;6.72;;
26163;SDS011;13914;48.178;11.716;2023-05-21T03:07:03;9.90;;;6.88;;
26163;SDS011;13914;48.178;11.716;2023-05-21T03:09:29;10.82;;;7.15;;
26163;SDS011;13914;48.178;11.716;2023-05-21T03:11:55;12.23;;;6.78;;
26163;SDS011;13914;48.178;11.716;2023-05-21T03:14:21;12.93;;;6.32;;
26163;SDS011;13914;48.178;11.716;2023-05-21T03:16:48;9.85;;;6.68;;
26163;SDS011;13914;48.178;11.716;2023-05-21T03:19:15;9.30;;;5.78;;
26163;SDS011;13914;48.178;11.716;2023-05-21T03:21:41;9.95;;;6.72;;
26163;SDS011;13914;48.178;11.716;2023-05-21T03:24:07;9.27;;;6.65;;
26163;SDS011;13914;48.178;11.716;2023-05-21T03:26:33;10.27;;;6.32;;
26163;SDS011;13914;48.178;11.716;2023-05-21T03:28:59;9.25;;;6.13;;
26163;SDS011;13914;48.178;11.716;2023-05-21T03:31:27;9.98;;;6.68;;
26163;SDS011;13914;48.178;11.716;2023-05-21T03:33:52;13.27;;;6.15;;
26163;SDS011;13914;48.178;11.716;2023-05-21T03:36:18;10.50;;;6.78;;
26163;SDS011;13914;48.178;11.716;2023-05-21T03:38:45;9.23;;;6.35;;
26163;SDS011;13914;48.178;11.716;2023-05-21T03:41:11;10.70;;;6.50;;
26163;SDS011;13914;48.178;11.716;2023-05-21T03:43:37;9.93;;;6.80;;
26163;SDS011;13914;48.178;11.716;2023-05-21T03:46:03;11.57;;;6.95;;
26163;SDS011;13914;48.178;11.716;2023-05-21T03:48:29;10.50;;;6.10;;
26163;SDS011;13914;48.178;11.716;2023-05-21T03:50:55;8.65;;;6.55;;
26163;SDS011;13914;48.178;11.716;2023-05-21T03:53:21;10.40;;;7.10;;
26163;SDS011;13914;48.178;11.716;2023-05-21T03:55:47;9.13;;;6.75;;
26163;SDS011;13914;48.178;11.716;2023-05-21T03:58:22;11.27;;;6.38;;
26163;SDS011;13914;48.178;11.716;2023-05-21T04:00:48;9.30;;;6.00;;
26163;SDS011;13914;48.178;11.716;2023-05-21T04:03:15;9.70;;;6.20;;
26163;SDS011;13914;48.178;11.716;2023-05-21T04:05:42;9.90;;;6.22;;
26163;SDS011;13914;48.178;11.716;2023-05-21T04:08:08;10.50;;;6.55;;
26163;SDS011;13914;48.178;11.716;2023-05-21T04:10:33;15.23;;;6.28;;
26163;SDS011;13914;48.178;11.716;2023-05-21T04:12:59;9.48;;;6.10;;
26163;SDS011;13914;48.178;11.716;2023-05-21T04:15:25;8.45;;;5.97;;
26163;SDS011;13914;48.178;11.716;2023-05-21T04:17:54;9.70;;;6.68;;
26163;SDS011;13914;48.178;11.716;2023-05-21T04:20:21;9.02;;;6.28;;
26163;SDS011;13914;48.178;11.716;2023-05-21T04:22:47;10.10;;;6.45;;
26163;SDS011;13914;48.178;11.716;2023-05-21T04:25:13;13.57;;;6.38;;
26163;SDS011;13914;48.178;11.716;2023-05-21T04:27:39;9.82;;;5.72;;
26163;SDS011;13914;48.178;11.716;2023-05-21T04:30:06;10.32;;;6.75;;
26163;SDS011;13914;48.178;11.716;2023-05-21T04:32:32;9.23;;;6.43;;
26163;SDS011;13914;48.178;11.716;2023-05-21T04:35:00;9.60;;;6.43;;
26163;SDS011;13914;48.178;11.716;2023-05-21T04:37:26;8.90;;;5.93;;
26163;SDS011;13914;48.178;11.716;2023-05-21T04:39:56;11.35;;;6.53;;
26163;SDS011;13914;48.178;11.716;2023-05-21T04:42:22;9.10;;;6.00;;
26163;SDS011;13914;48.178;11.716;2023-05-21T04:44:48;12.82;;;6.18;;
26163;SDS011;13914;48.178;11.716;2023-05-21T04:47:15;9.15;;;6.20;;
26163;SDS011;13914;48.178;11.716;2023-05-21T04:49:42;11.32;;;6.38;;
26163;SDS011;13914;48.178;11.716;2023-05-21T04:57:03;13.00;;;5.90;;
26163;SDS011;13914;48.178;11.716;2023-05-21T04:59:30;11.70;;;6.93;;
26163;SDS011;13914;48.178;11.716;2023-05-21T05:01:56;13.98;;;6.55;;
26163;SDS011;13914;48.178;11.716;2023-05-21T05:04:22;7.60;;;5.63;;
26163;SDS011;13914;48.178;11.716;2023-05-21T05:06:48;8.48;;;6.32;;
26163;SDS011;13914;48.178;11.716;2023-05-21T05:09:14;10.07;;;6.65;;
26163;SDS011;13914;48.178;11.716;2023-05-21T05:11:40;9.40;;;6.20;;
26163;SDS011;13914;48.178;11.716;2023-05-21T05:14:06;10.73;;;6.55;;
26163;SDS011;13914;48.178;11.716;2023-05-21T05:16:32;9.02;;;6.65;;
26163;SDS011;13914;48.178;11.716;2023-05-21T05:18:59;11.85;;;6.30;;
26163;SDS011;13914;48.178;11.716;2023-05-21T05:21:25;9.13;;;6.00;;
26163;SDS011;13914;48.178;11.716;2023-05-21T05:23:51;9.10;;;6.00;;
26163;SDS011;13914;48.178;11.716;2023-05-21T05:26:17;11.48;;;6.45;;
26163;SDS011;13914;48.178;11.716;2023-05-21T05:28:43;10.13;;;6.32;;
26163;SDS011;13914;48.178;11.716;2023-05-21T05:31:09;10.32;;;6.28;;
26163;SDS011;13914;48.178;11.716;2023-05-21T05:33:36;8.30;;;5.65;;
26163;SDS011;13914;48.178;11.716;2023-05-21T05:36:01;12.52;;;6.85;;
26163;SDS011;13914;48.178;11.716;2023-05-21T05:38:27;8.45;;;5.97;;
26163;SDS011;13914;48.178;11.716;2023-05-21T05:40:53;8.38;;;5.55;;
26163;SDS011;13914;48.178;11.716;2023-05-21T05:43:19;9.77;;;5.85;;
26163;SDS011;13914;48.178;11.716;2023-05-21T05:45:45;9.02;;;5.45;;
26163;SDS011;13914;48.178;11.716;2023-05-21T05:50:37;9.57;;;5.85;;
26163;SDS011;13914;48.178;11.716;2023-05-21T05:53:03;7.60;;;6.00;;
26163;SDS011;13914;48.178;11.716;2023-05-21T05:55:29;8.98;;;6.03;;
26163;SDS011;13914;48.178;11.716;2023-05-21T05:57:55;10.73;;;5.95;;
26163;SDS011;13914;48.178;11.716;2023-05-21T06:00:21;13.57;;;5.47;;
26163;SDS011;13914;48.178;11.716;2023-05-21T06:02:47;9.43;;;6.32;;
26163;SDS011;13914;48.178;11.716;2023-05-21T06:05:13;8.80;;;6.00;;
26163;SDS011;13914;48.178;11.716;2023-05-21T06:07:39;9.07;;;5.72;;
26163;SDS011;13914;48.178;11.716;2023-05-21T06:10:05;8.48;;;5.55;;
26163;SDS011;13914;48.178;11.716;2023-05-21T06:12:32;12.05;;;5.90;;
26163;SDS011;13914;48.178;11.716;2023-05-21T06:14:57;8.63;;;6.18;;
26163;SDS011;13914;48.178;11.716;2023-05-21T06:17:24;7.80;;;5.80;;
26163;SDS011;13914;48.178;11.716;2023-05-21T06:19:50;10.35;;;5.97;;
26163;SDS011;13914;48.178;11.716;2023-05-21T06:22:15;11.27;;;6.25;;
26163;SDS011;13914;48.178;11.716;2023-05-21T06:24:41;8.45;;;5.70;;
26163;SDS011;13914;48.178;11.716;2023-05-21T06:27:07;8.52;;;5.70;;
26163;SDS011;13914;48.178;11.716;2023-05-21T06:29:33;7.30;;;5.47;;
26163;SDS011;13914;48.178;11.716;2023-05-21T06:31:58;7.78;;;5.65;;
26163;SDS011;13914;48.178;11.716;2023-05-21T06:34:25;8.93;;;6.20;;
26163;SDS011;13914;48.178;11.716;2023-05-21T06:36:52;8.52;;;5.55;;
26163;SDS011;13914;48.178;11.716;2023-05-21T06:39:18;7.72;;;5.40;;
26163;SDS011;13914;48.178;11.716;2023-05-21T06:41:44;8.00;;;5.70;;
26163;SDS011;13914;48.178;11.716;2023-05-21T06:44:10;11.00;;;6.15;;
26163;SDS011;13914;48.178;11.716;2023-05-21T06:46:36;9.38;;;5.82;;
26163;SDS011;13914;48.178;11.716;2023-05-21T06:49:02;12.77;;;6.22;;
26163;SDS011;13914;48.178;11.716;2023-05-21T06:51:30;12.05;;;5.97;;
26163;SDS011;13914;48.178;11.716;2023-05-21T06:53:56;7.88;;;5.15;;
26163;SDS011;13914;48.178;11.716;2023-05-21T06:56:22;10.13;;;5.95;;
26163;SDS011;13914;48.178;11.716;2023-05-21T06:58:48;10.20;;;6.32;;
26163;SDS011;13914;48.178;11.716;2023-05-21T07:01:14;7.88;;;5.72;;
26163;SDS011;13914;48.178;11.716;2023-05-21T07:03:40;8.48;;;5.35;;
26163;SDS011;13914;48.178;11.716;2023-05-21T07:06:06;10.13;;;6.20;;
26163;SDS011;13914;48.178;11.716;2023-05-21T07:08:32;9.25;;;6.38;;
26163;SDS011;13914;48.178;11.716;2023-05-21T07:10:57;9.55;;;6.07;;
26163;SDS011;13914;48.178;11.716;2023-05-21T07:13:23;12.10;;;6.22;;
26163;SDS011;13914;48.178;11.716;2023-05-21T07:15:49;11.57;;;6.72;;
26163;SDS011;13914;48.178;11.716;2023-05-21T07:18:15;10.57;;;5.53;;
26163;SDS011;13914;48.178;11.716;2023-05-21T07:20:41;8.23;;;5.45;;
26163;SDS011;13914;48.178;11.716;2023-05-21T07:23:07;7.70;;;5.60;;
26163;SDS011;13914;48.178;11.716;2023-05-21T07:25:32;9.30;;;6.28;;
26163;SDS011;13914;48.178;11.716;2023-05-21T07:27:58;8.23;;;5.22;;
26163;SDS011;13914;48.178;11.716;2023-05-21T07:30:24;7.82;;;5.45;;
26163;SDS011;13914;48.178;11.716;2023-05-21T07:32:50;8.00;;;5.63;;
26163;SDS011;13914;48.178;11.716;2023-05-21T07:35:16;8.02;;;5.28;;
26163;SDS011;13914;48.178;11.716;2023-05-21T07:42:36;9.20;;;5.55;;
26163;SDS011;13914;48.178;11.716;2023-05-21T07:45:01;10.05;;;5.85;;
26163;SDS011;13914;48.178;11.716;2023-05-21T07:47:28;7.78;;;5.45;;
26163;SDS011;13914;48.178;11.716;2023-05-21T07:49:54;8.95;;;5.72;;
26163;SDS011;13914;48.178;11.716;2023-05-21T07:52:20;9.07;;;5.30;;
26163;SDS011;13914;48.178;11.716;2023-05-21T07:54:46;13.27;;;6.07;;
26163;SDS011;13914;48.178;11.716;2023-05-21T07:57:11;12.90;;;6.93;;
26163;SDS011;13914;48.178;11.716;2023-05-21T07:59:37;7.40;;;5.75;;
26163;SDS011;13914;48.178;11.716;2023-05-21T08:02:03;8.50;;;5.63;;
26163;SDS011;13914;48.178;11.716;2023-05-21T08:04:29;7.95;;;5.70;;
26163;SDS011;13914;48.178;11.716;2023-05-21T08:06:55;7.90;;;5.60;;
26163;SDS011;13914;48.178;11.716;2023-05-21T08:09:21;8.15;;;5.88;;
26163;SDS011;13914;48.178;11.716;2023-05-21T08:11:47;7.30;;;5.05;;
26163;SDS011;13914;48.178;11.716;2023-05-21T08:14:13;9.82;;;5.35;;
26163;SDS011;13914;48.178;11.716;2023-05-21T08:16:38;8.35;;;5.18;;
26163;SDS011;13914;48.178;11.716;2023-05-21T08:19:04;11.45;;;6.50;;
26163;SDS011;13914;48.178;11.716;2023-05-21T08:21:30;6.90;;;5.28;;
26163;SDS011;13914;48.178;11.716;2023-05-21T08:23:56;8.38;;;6.05;;
26163;SDS011;13914;48.178;11.716;2023-05-21T08:26:24;12.25;;;5.97;;
26163;SDS011;13914;48.178;11.716;2023-05-21T08:28:50;9.43;;;5.82;;
26163;SDS011;13914;48.178;11.716;2023-05-21T08:31:19;9.63;;;6.35;;
26163;SDS011;13914;48.178;11.716;2023-05-21T08:33:51;9.95;;;6.22;;
26163;SDS011;13914;48.178;11.716;2023-05-21T08:36:18;7.07;;;5.60;;
26163;SDS011;13914;48.178;11.716;2023-05-21T08:38:45;9.48;;;5.68;;
26163;SDS011;13914;48.178;11.716;2023-05-21T08:41:11;10.95;;;6.25;;
26163;SDS011;13914;48.178;11.716;2023-05-21T08:43:38;9.93;;;6.70;;
26163;SDS011;13914;48.178;11.716;2023-05-21T08:46:05;7.95;;;5.65;;
26163;SDS011;13914;48.178;11.716;2023-05-21T08:48:32;11.00;;;5.75;;
26163;SDS011;13914;48.178;11.716;2023-05-21T08:51:00;10.35;;;6.30;;
26163;SDS011;13914;48.178;11.716;2023-05-21T08:53:27;10.20;;;6.00;;
26163;SDS011;13914;48.178;11.716;2023-05-21T08:55:53;14.80;;;6.10;;
26163;SDS011;13914;48.178;11.716;2023-05-21T08:58:21;7.57;;;5.30;;
26163;SDS011;13914;48.178;11.716;2023-05-21T09:00:47;9.18;;;5.78;;
26163;SDS011;13914;48.178;11.716;2023-05-21T09:03:13;9.93;;;5.82;;
26163;SDS011;13914;48.178;11.716;2023-05-21T09:05:40;7.88;;;5.78;;
26163;SDS011;13914;48.178;11.716;2023-05-21T09:10:56;8.63;;;5.85;;
26163;SDS011;13914;48.178;11.716;2023-05-21T09:13:21;9.00;;;5.30;;
26163;SDS011;13914;48.178;11.716;2023-05-21T09:15:51;9.73;;;5.90;;
26163;SDS011;13914;48.178;11.716;2023-05-21T09:18:16;7.25;;;6.15;;
26163;SDS011;13914;48.178;11.716;2023-05-21T09:20:42;8.60;;;5.63;;
26163;SDS011;13914;48.178;11.716;2023-05-21T09:23:09;7.07;;;5.30;;
26163;SDS011;13914;48.178;11.716;2023-05-21T09:25:40;9.70;;;5.82;;
26163;SDS011;13914;48.178;11.716;2023-05-21T09:28:12;7.68;;;5.85;;
26163;SDS011;13914;48.178;11.716;2023-05-21T09:30:43;8.73;;;5.70;;
26163;SDS011;13914;48.178;11.716;2023-05-21T09:33:23;12.35;;;5.60;;
26163;SDS011;13914;48.178;11.716;2023-05-21T09:35:50;7.88;;;5.82;;
26163;SDS011;13914;48.178;11.716;2023-05-21T09:38:16;9.27;;;5.47;;
26163;SDS011;13914;48.178;11.716;2023-05-21T09:40:43;9.73;;;5.90;;
26163;SDS011;13914;48.178;11.716;2023-05-21T09:43:14;7.72;;;5.20;;
26163;SDS011;13914;48.178;11.716;2023-05-21T09:45:53;10.52;;;6.03;;
26163;SDS011;13914;48.178;11.716;2023-05-21T09:48:33;8.02;;;5.78;;
26163;SDS011;13914;48.178;11.716;2023-05-21T09:53:54;10.40;;;5.22;;
26163;SDS011;13914;48.178;11.716;2023-05-21T09:56:28;7.10;;;4.88;;
26163;SDS011;13914;48.178;11.716;2023-05-21T09:58:59;10.00;;;5.88;;
26163;SDS011;13914;48.178;11.716;2023-05-21T10:01:29;7.50;;;5.13;;
26163;SDS011;13914;48.178;11.716;2023-05-21T10:03:59;6.97;;;5.22;;
26163;SDS011;13914;48.178;11.716;2023-05-21T10:06:28;8.48;;;5.25;;
26163;SDS011;13914;48.178;11.716;2023-05-21T10:08:56;8.77;;;5.25;;
26163;SDS011;13914;48.178;11.716;2023-05-21T10:11:26;10.93;;;5.70;;
26163;SDS011;13914;48.178;11.716;2023-05-21T10:14:03;7.28;;;5.10;;
26163;SDS011;13914;48.178;11.716;2023-05-21T10:16:32;8.55;;;5.68;;
26163;SDS011;13914;48.178;11.716;2023-05-21T10:18:59;7.57;;;5.35;;
26163;SDS011;13914;48.178;11.716;2023-05-21T10:21:26;9.30;;;5.25;;
26163;SDS011;13914;48.178;11.716;2023-05-21T10:26:20;7.15;;;4.95;;
26163;SDS011;13914;48.178;11.716;2023-05-21T10:28:48;7.15;;;5.13;;
26163;SDS011;13914;48.178;11.716;2023-05-21T10:31:15;7.47;;;4.88;;
26163;SDS011;13914;48.178;11.716;2023-05-21T10:33:42;8.30;;;5.20;;
26163;SDS011;13914;48.178;11.716;2023-05-21T10:38:34;8.52;;;5.28;;
26163;SDS011;13914;48.178;11.716;2023-05-21T10:41:02;10.32;;;5.70;;
26163;SDS011;13914;48.178;11.716;2023-05-21T10:43:43;7.45;;;5.15;;
26163;SDS011;13914;48.178;11.716;2023-05-21T10:56:16;7.38;;;5.47;;
26163;SDS011;13914;48.178;11.716;2023-05-21T10:59:50;7.43;;;5.57;;
26163;SDS011;13914;48.178;11.716;2023-05-21T11:02:10;7.10;;;5.28;;
26163;SDS011;13914;48.178;11.716;2023-05-21T11:04:40;8.85;;;5.35;;
26163;SDS011;13914;48.178;11.716;2023-05-21T11:07:11;6.38;;;5.60;;
26163;SDS011;13914;48.178;11.716;2023-05-21T11:09:37;9.45;;;5.53;;
26163;SDS011;13914;48.178;11.716;2023-05-21T11:12:03;7.75;;;5.10;;
26163;SDS011;13914;48.178;11.716;2023-05-21T11:14:36;7.53;;;5.38;;
26163;SDS011;13914;48.178;11.716;2023-05-21T11:17:11;6.13;;;5.15;;
26163;SDS011;13914;48.178;11.716;2023-05-21T11:19:44;7.60;;;5.00;;
26163;SDS011;13914;48.178;11.716;2023-05-21T11:22:22;7.47;;;5.22;;
26163;SDS011;13914;48.178;11.716;2023-05-21T11:24:52;7.72;;;5.72;;
26163;SDS011;13914;48.178;11.716;2023-05-21T11:27:29;7.03;;;5.35;;
26163;SDS011;13914;48.178;11.716;2023-05-21T11:29:55;8.40;;;5.25;;
26163;SDS011;13914;48.178;11.716;2023-05-21T11:34:48;8.10;;;5.93;;
26163;SDS011;13914;48.178;11.716;2023-05-21T11:39:45;9.93;;;5.85;;
26163;SDS011;13914;48.178;11.716;2023-05-21T11:42:12;7.43;;;4.63;;
26163;SDS011;13914;48.178;11.716;2023-05-21T11:44:52;7.65;;;5.30;;
26163;SDS011;13914;48.178;11.716;2023-05-21T11:47:20;5.90;;;5.03;;
26163;SDS011;13914;48.178;11.716;2023-05-21T11:52:13;6.88;;;4.97;;
26163;SDS011;13914;48.178;11.716;2023-05-21T11:54:41;5.97;;;4.65;;
26163;SDS011;13914;48.178;11.716;2023-05-21T11:57:10;6.15;;;4.60;;
26163;SDS011;13914;48.178;11.716;2023-05-21T11:59:40;6.82;;;5.10;;
26163;SDS011;13914;48.178;11.716;2023-05-21T12:04:32;7.85;;;5.78;;
26163;SDS011;13914;48.178;11.716;2023-05-21T12:07:06;8.07;;;4.90;;
26163;SDS011;13914;48.178;11.716;2023-05-21T12:09:39;8.50;;;4.95;;
26163;SDS011;13914;48.178;11.716;2023-05-21T12:14:37;8.10;;;4.72;;
26163;SDS011;13914;48.178;11.716;2023-05-21T12:17:04;7.65;;;5.13;;
26163;SDS011;13914;48.178;11.716;2023-05-21T12:19:32;6.35;;;4.68;;
26163;SDS011;13914;48.178;11.716;2023-05-21T12:22:07;10.18;;;5.18;;
26163;SDS011;13914;48.178;11.716;2023-05-21T12:24:34;5.78;;;4.75;;
26163;SDS011;13914;48.178;11.716;2023-05-21T12:27:02;7.80;;;4.88;;
26163;SDS011;13914;48.178;11.716;2023-05-21T12:29:33;9.20;;;4.95;;
26163;SDS011;13914;48.178;11.716;2023-05-21T12:32:05;9.38;;;4.72;;
26163;SDS011;13914;48.178;11.716;2023-05-21T12:34:46;8.18;;;5.20;;
26163;SDS011;13914;48.178;11.716;2023-05-21T12:37:23;6.53;;;5.10;;
26163;SDS011;13914;48.178;11.716;2023-05-21T12:39:52;8.57;;;4.75;;
26163;SDS011;13914;48.178;11.716;2023-05-21T12:42:26;7.55;;;4.70;;
26163;SDS011;13914;48.178;11.716;2023-05-21T12:44:54;7.03;;;5.00;;
26163;SDS011;13914;48.178;11.716;2023-05-21T12:47:22;7.65;;;4.78;;
26163;SDS011;13914;48.178;11.716;2023-05-21T12:49:52;5.47;;;4.63;;
26163;SDS011;13914;48.178;11.716;2023-05-21T12:52:22;9.07;;;5.10;;
26163;SDS011;13914;48.178;11.716;2023-05-21T12:54:49;6.15;;;5.18;;
26163;SDS011;13914;48.178;11.716;2023-05-21T12:57:18;5.90;;;4.28;;
26163;SDS011;13914;48.178;11.716;2023-05-21T13:02:23;6.28;;;4.68;;
26163;SDS011;13914;48.178;11.716;2023-05-21T13:07:24;6.28;;;4.72;;
26163;SDS011;13914;48.178;11.716;2023-05-21T13:09:52;7.10;;;5.03;;
26163;SDS011;13914;48.178;11.716;2023-05-21T13:12:22;7.63;;;5.22;;
26163;SDS011;13914;48.178;11.716;2023-05-21T13:14:51;7.22;;;4.78;;
26163;SDS011;13914;48.178;11.716;2023-05-21T13:17:19;9.70;;;5.05;;
26163;SDS011;13914;48.178;11.716;2023-05-21T13:20:06;9.75;;;4.82;;
26163;SDS011;13914;48.178;11.716;2023-05-21T13:22:34;9.57;;;5.10;;
26163;SDS011;13914;48.178;11.716;2023-05-21T13:25:03;10.52;;;5.25;;
26163;SDS011;13914;48.178;11.716;2023-05-21T13:27:30;6.95;;;4.53;;
26163;SDS011;13914;48.178;11.716;2023-05-21T13:32:22;7.13;;;4.30;;
26163;SDS011;13914;48.178;11.716;2023-05-21T13:37:13;6.97;;;4.97;;
26163;SDS011;13914;48.178;11.716;2023-05-21T13:42:05;7.85;;;4.88;;
26163;SDS011;13914;48.178;11.716;2023-05-21T13:44:32;6.30;;;4.90;;
26163;SDS011;13914;48.178;11.716;2023-05-21T13:47:03;6.38;;;4.93;;
26163;SDS011;13914;48.178;11.716;2023-05-21T13:49:30;6.72;;;4.47;;
26163;SDS011;13914;48.178;11.716;2023-05-21T13:51:58;7.88;;;4.88;;
26163;SDS011;13914;48.178;11.716;2023-05-21T13:54:25;7.47;;;5.32;;
26163;SDS011;13914;48.178;11.716;2023-05-21T13:56:51;5.70;;;4.30;;
26163;SDS011;13914;48.178;11.716;2023-05-21T13:59:18;7.82;;;5.22;;
26163;SDS011;13914;48.178;11.716;2023-05-21T14:01:44;8.75;;;4.78;;
26163;SDS011;13914;48.178;11.716;2023-05-21T14:04:11;10.30;;;5.28;;
26163;SDS011;13914;48.178;11.716;2023-05-21T14:09:03;6.00;;;4.75;;
26163;SDS011;13914;48.178;11.716;2023-05-21T14:11:30;6.88;;;4.97;;
26163;SDS011;13914;48.178;11.716;2023-05-21T14:13:59;10.65;;;5.05;;
26163;SDS011;13914;48.178;11.716;2023-05-21T14:16:25;8.55;;;4.50;;
26163;SDS011;13914;48.178;11.716;2023-05-21T14:18:52;6.32;;;4.38;;
26163;SDS011;13914;48.178;11.716;2023-05-21T14:21:18;7.40;;;5.30;;
26163;SDS011;13914;48.178;11.716;2023-05-21T14:23:44;7.97;;;5.45;;
26163;SDS011;13914;48.178;11.716;2023-05-21T14:26:11;8.80;;;4.50;;
26163;SDS011;13914;48.178;11.716;2023-05-21T14:28:38;5.63;;;4.18;;
26163;SDS011;13914;48.178;11.716;2023-05-21T14:33:30;6.43;;;4.65;;
26163;SDS011;13914;48.178;11.716;2023-05-21T14:35:57;6.28;;;4.38;;
26163;SDS011;13914;48.178;11.716;2023-05-21T14:38:24;8.48;;;4.65;;
26163;SDS011;13914;48.178;11.716;2023-05-21T14:43:16;5.95;;;4.70;;
26163;SDS011;13914;48.178;11.716;2023-05-21T14:48:07;5.72;;;4.50;;
26163;SDS011;13914;48.178;11.716;2023-05-21T14:53:03;5.68;;;4.55;;
26163;SDS011;13914;48.178;11.716;2023-05-21T14:55:33;9.15;;;5.25;;
26163;SDS011;13914;48.178;11.716;2023-05-21T14:58:01;9.27;;;4.25;;
26163;SDS011;13914;48.178;11.716;2023-05-21T15:00:29;8.15;;;4.70;;
26163;SDS011;13914;48.178;11.716;2023-05-21T15:02:56;10.98;;;4.95;;
26163;SDS011;13914;48.178;11.716;2023-05-21T15:05:23;8.45;;;5.05;;
26163;SDS011;13914;48.178;11.716;2023-05-21T15:07:49;8.55;;;4.97;;
26163;SDS011;13914;48.178;11.716;2023-05-21T15:12:41;9.52;;;4.40;;
26163;SDS011;13914;48.178;11.716;2023-05-21T15:15:07;6.97;;;4.95;;
26163;SDS011;13914;48.178;11.716;2023-05-21T15:17:34;10.65;;;4.90;;
26163;SDS011;13914;48.178;11.716;2023-05-21T15:22:28;6.32;;;4.25;;
26163;SDS011;13914;48.178;11.716;2023-05-21T15:24:58;7.97;;;4.20;;
26163;SDS011;13914;48.178;11.716;2023-05-21T15:27:26;7.90;;;4.72;;
26163;SDS011;13914;48.178;11.716;2023-05-21T15:32:17;7.03;;;4.55;;
26163;SDS011;13914;48.178;11.716;2023-05-21T15:34:49;4.82;;;3.85;;
26163;SDS011;13914;48.178;11.716;2023-05-21T15:37:15;7.85;;;4.75;;
26163;SDS011;13914;48.178;11.716;2023-05-21T15:39:45;8.30;;;4.22;;
26163;SDS011;13914;48.178;11.716;2023-05-21T15:42:14;7.35;;;4.60;;
26163;SDS011;13914;48.178;11.716;2023-05-21T15:44:40;6.70;;;4.25;;
26163;SDS011;13914;48.178;11.716;2023-05-21T15:47:06;6.10;;;4.55;;
26163;SDS011;13914;48.178;11.716;2023-05-21T15:49:32;6.85;;;4.15;;
26163;SDS011;13914;48.178;11.716;2023-05-21T15:51:58;7.07;;;4.07;;
26163;SDS011;13914;48.178;11.716;2023-05-21T15:54:25;7.35;;;4.50;;
26163;SDS011;13914;48.178;11.716;2023-05-21T15:56:52;7.38;;;4.38;;
26163;SDS011;13914;48.178;11.716;2023-05-21T15:59:17;7.57;;;4.18;;
26163;SDS011;13914;48.178;11.716;2023-05-21T16:01:43;7.25;;;4.28;;
26163;SDS011;13914;48.178;11.716;2023-05-21T16:04:09;6.68;;;4.00;;